Campbell Foss — WDC7754 — position and weather

sailwx.info

Track history (hours):
 
Tides and Currents Weather Stations Pressure Air Temp Water Temp Dewpoint Dewpoint Depression Visibility Wind Speed Wind Dir Waves Ship Positions

Campbell Foss

Owner: Foss Maritime Co., Seattle, WA. More information available from US FCC via Universal Licensing System and Coast Guard Vessel Documentation Center.

Last reported at 2017-Nov-19 19:57 UTC. Time now 2017-Nov-20 04:08 UTC.
Position N 33°43' W 118°16'.

Length 23 m; draft 16 m.

Type: Tug. MMSI: 367076360.

Date/timePositionNaut miles runAvg speedWind from/ knotsBaromVisibWave heightAir tempDewpointWater temp
2017-Nov-19 19:57N 33°43' W 118°16'4 1.4
2017-Nov-19 17:17N 33°46' W 118°13'0 0.3
2017-Nov-19 16:49N 33°46' W 118°13'0 0.0
2017-Nov-19 15:59N 33°46' W 118°13'1 0.1
2017-Nov-19 01:34N 33°46' W 118°14'0 0.3
2017-Nov-19 01:30N 33°46' W 118°14'1 1.1
2017-Nov-19 00:44N 33°46' W 118°13'0 0.0
2017-Nov-19 00:30N 33°46' W 118°13'3 6.5
2017-Nov-19 00:00N 33°44' W 118°10'1 2.1
2017-Nov-18 23:25N 33°43' W 118°11'3 2.2
2017-Nov-18 22:11N 33°45' W 118°13'  
2017-Nov-16 13:45N 33°45' W 118°12'0 1.0
2017-Nov-16 13:30N 33°45' W 118°12'0 0.2
2017-Nov-16 12:12N 33°44' W 118°12'0 0.4
2017-Nov-16 11:56N 33°44' W 118°12'0 0.0
2017-Nov-16 11:28N 33°44' W 118°12'3 0.2
2017-Nov-15 12:55N 33°45' W 118°16'1 2.3
2017-Nov-15 12:23N 33°44' W 118°16'1 1.0
2017-Nov-15 11:26N 33°45' W 118°16'3 0.5
2017-Nov-15 05:55N 33°45' W 118°13'2 0.1
2017-Nov-14 11:02N 33°45' W 118°16'0 2.1
2017-Nov-14 10:55N 33°45' W 118°16'2 0.3
2017-Nov-14 03:34N 33°46' W 118°13'0 0.0
2017-Nov-14 03:30N 33°46' W 118°13'0 0.0
2017-Nov-14 01:42N 33°46' W 118°13'0 0.0
2017-Nov-14 00:33N 33°46' W 118°13'0 0.0
2017-Nov-14 00:27N 33°46' W 118°13'0 0.7
2017-Nov-14 00:00N 33°45' W 118°13'0 0.4
2017-Nov-13 23:30N 33°46' W 118°13'1 1.5
2017-Nov-13 22:50N 33°45' W 118°13'1 3.3
2017-Nov-13 22:29N 33°44' W 118°11'2 0.1
2017-Nov-12 16:37N 33°46' W 118°13'0 0.0
2017-Nov-12 16:13N 33°46' W 118°13'0 0.0
2017-Nov-12 16:00N 33°46' W 118°13'0 0.0
2017-Nov-12 15:30N 33°46' W 118°13'0 0.0
2017-Nov-12 15:00N 33°46' W 118°13'2 0.3
2017-Nov-12 09:11N 33°45' W 118°12'0 0.0
2017-Nov-12 06:16N 33°45' W 118°12'0 0.0
2017-Nov-12 02:50N 33°44' W 118°12'  
Track history (hours):
 
Tides and Currents Weather Stations Pressure Air Temp Water Temp Dewpoint Dewpoint Depression Visibility Wind Speed Wind Dir Waves Ship Positions

Campbell Foss

Owner: Foss Maritime Co., Seattle, WA. More information available from US FCC via Universal Licensing System and Coast Guard Vessel Documentation Center.

Last reported at 2017-Nov-19 19:57 UTC. Time now 2017-Nov-20 04:08 UTC.
Position N 33°43' W 118°16'.

Length 23 m; draft 16 m.

Type: Tug. MMSI: 367076360.

Date/timePositionNaut miles runAvg speedWind from/ knotsBaromVisibWave heightAir tempDewpointWater temp
2017-Nov-19 19:57N 33°43' W 118°16'4 1.4
2017-Nov-19 17:17N 33°46' W 118°13'0 0.3
2017-Nov-19 16:49N 33°46' W 118°13'0 0.0
2017-Nov-19 15:59N 33°46' W 118°13'1 0.1
2017-Nov-19 01:34N 33°46' W 118°14'0 0.3
2017-Nov-19 01:30N 33°46' W 118°14'1 1.1
2017-Nov-19 00:44N 33°46' W 118°13'0 0.0
2017-Nov-19 00:30N 33°46' W 118°13'3 6.5
2017-Nov-19 00:00N 33°44' W 118°10'1 2.1
2017-Nov-18 23:25N 33°43' W 118°11'3 2.2
2017-Nov-18 22:11N 33°45' W 118°13'  
2017-Nov-16 13:45N 33°45' W 118°12'0 1.0
2017-Nov-16 13:30N 33°45' W 118°12'0 0.2
2017-Nov-16 12:12N 33°44' W 118°12'0 0.4
2017-Nov-16 11:56N 33°44' W 118°12'0 0.0
2017-Nov-16 11:28N 33°44' W 118°12'3 0.2
2017-Nov-15 12:55N 33°45' W 118°16'1 2.3
2017-Nov-15 12:23N 33°44' W 118°16'1 1.0
2017-Nov-15 11:26N 33°45' W 118°16'3 0.5
2017-Nov-15 05:55N 33°45' W 118°13'2 0.1
2017-Nov-14 11:02N 33°45' W 118°16'0 2.1
2017-Nov-14 10:55N 33°45' W 118°16'2 0.3
2017-Nov-14 03:34N 33°46' W 118°13'0 0.0
2017-Nov-14 03:30N 33°46' W 118°13'0 0.0
2017-Nov-14 01:42N 33°46' W 118°13'0 0.0
2017-Nov-14 00:33N 33°46' W 118°13'0 0.0
2017-Nov-14 00:27N 33°46' W 118°13'0 0.7
2017-Nov-14 00:00N 33°45' W 118°13'0 0.4
2017-Nov-13 23:30N 33°46' W 118°13'1 1.5
2017-Nov-13 22:50N 33°45' W 118°13'1 3.3
2017-Nov-13 22:29N 33°44' W 118°11'2 0.1
2017-Nov-12 16:37N 33°46' W 118°13'0 0.0
2017-Nov-12 16:13N 33°46' W 118°13'0 0.0
2017-Nov-12 16:00N 33°46' W 118°13'0 0.0
2017-Nov-12 15:30N 33°46' W 118°13'0 0.0
2017-Nov-12 15:00N 33°46' W 118°13'2 0.3
2017-Nov-12 09:11N 33°45' W 118°12'0 0.0
2017-Nov-12 06:16N 33°45' W 118°12'0 0.0
2017-Nov-12 02:50N 33°44' W 118°12'  

Dump ship's entire track history